Buenos Aires, Argentina

1:31 PM ART en Diciembre 21, 2014 (GMT -0300)
Colegiales | Change Station
CLOSE
Current Station
Estación meteorológica personal
Location: Buenos Aires, BUENOS AIRES
Altura: 62 ft
Estaciones meteorológicas cercanas

Alt 62 ft 34.58 °S, 58.45 °W | Updated 1 minute ago

Clear
Despejado
78.3 ° F
Sensación térmica 80 ° F
N
0.0
Viento Variable Viento desde Norte
Gusts 0.0 mph

Hoy
Alta -- | Baja -- ° F
--% Posibilidad de precipitaciones
Ayer
Alta -- | Baja -- ° F
Precip. -- pul
5:37 AM 8:06 PM
Creciente menguante, 0% visible
Presión 29.77 pul
Visibilidad -9999.0 Millas
Nubes
Índice de calor 80 ° F
Punto de rocío 59 ° F
Humedad 52%
Precipitaciones 0.20 pul
Espesor de la nieve No disponible.
UV No disponible.
Polen No disponible.
Calidad del aire No disponible.
Flu Activity No disponible.
METAR SABE 211600Z 18012KT CAVOK 21/10 Q1008

More Conditions Fewer Conditions

Presión 29.77 pul
Visibilidad -9999.0 Millas
Nubes
Índice de calor 80 ° F
Punto de rocío 59 ° F
Humedad 52%
Precipitaciones 0.20 pul
Espesor de la nieve No disponible.
UV No disponible.
Polen No disponible.
Calidad del aire No disponible.
Flu Activity No disponible.
METAR SABE 211600Z 18012KT CAVOK 21/10 Q1008

More Conditions Fewer Conditions

10-Day Weather Forecast

Almanac

Astronomía

Dec. 21, 2014 Salida Puesta
Hora real
Crepúsculo civil
Crepúsculo náutico
Crepúsculo astronómico
Luna
Horas de luz
Horas de luz
Tomorrow will be .
, % of the Moon is Illuminated

Extremos de hoy

Máximos del país Bajas del país

Community

WunderPhotos

Upload Photos

1,779,430 ¡fotos cargadas!

WunderBlogs® & News

Nearby

Calidad del aire

  Calidad del aire Índice AQ Contaminante
Not available.

Grosos de nieve

Estación Profundido Altura

Actividad de terremotos

Ciudad Distance Mag. Tiempo y dato
Magnitud mínima muestra es 2,5.

Temperaturas de aguas costeras

Lugar Temperatura

Estaciones meteorológicas cercanas